createdAt,value
2022-12-18T00:00:08.592Z,12.40
2022-12-18T00:02:41.931Z,9.80
2022-12-18T00:05:10.468Z,10.43
2022-12-18T00:07:39.154Z,10.00
2022-12-18T00:10:09.104Z,11.10
2022-12-18T00:12:37.268Z,10.40
2022-12-18T00:15:07.708Z,10.67
2022-12-18T00:17:35.857Z,12.33
2022-12-18T00:20:04.566Z,11.47
2022-12-18T00:22:32.723Z,10.57
2022-12-18T00:25:00.917Z,10.57
2022-12-18T00:27:29.017Z,10.50
2022-12-18T00:29:57.100Z,10.43
2022-12-18T00:32:26.583Z,10.30
2022-12-18T00:34:54.677Z,9.37
2022-12-18T00:37:22.788Z,10.40
2022-12-18T00:39:52.723Z,10.57
2022-12-18T00:42:39.493Z,9.67
2022-12-18T00:45:12.585Z,10.20
2022-12-18T00:47:42.824Z,9.13
2022-12-18T00:50:11.726Z,9.07
2022-12-18T00:52:43.626Z,11.13
2022-12-18T00:55:12.173Z,11.50
2022-12-18T00:57:40.422Z,10.30
2022-12-18T01:00:11.077Z,10.90
2022-12-18T01:02:39.376Z,9.73
2022-12-18T01:05:11.013Z,10.07
2022-12-18T01:07:39.308Z,11.03
2022-12-18T01:10:09.196Z,10.77
2022-12-18T01:12:37.701Z,10.20
2022-12-18T01:15:07.335Z,11.07
2022-12-18T01:17:35.705Z,8.77
2022-12-18T01:20:03.933Z,8.30
2022-12-18T01:22:33.385Z,9.10
2022-12-18T01:25:02.098Z,9.10
2022-12-18T01:27:30.267Z,10.17
2022-12-18T01:29:58.522Z,9.90
2022-12-18T01:32:27.624Z,11.17
2022-12-18T01:34:55.704Z,10.60
2022-12-18T01:37:23.774Z,12.50
2022-12-18T01:39:55.314Z,10.70
2022-12-18T01:42:24.127Z,10.20
2022-12-18T01:45:02.196Z,10.53
2022-12-18T01:47:34.965Z,9.10
2022-12-18T01:50:06.431Z,10.13
2022-12-18T01:52:35.622Z,10.37
2022-12-18T01:55:07.729Z,10.70
2022-12-18T01:57:36.552Z,9.93
2022-12-18T02:00:17.248Z,10.03
2022-12-18T02:02:47.172Z,9.53
2022-12-18T02:05:18.401Z,10.33
2022-12-18T02:07:59.117Z,10.33
2022-12-18T02:10:33.641Z,10.10
2022-12-18T02:13:10.837Z,10.60
2022-12-18T02:15:45.710Z,8.20
2022-12-18T02:18:20.710Z,9.40
2022-12-18T02:20:56.044Z,9.00
2022-12-18T02:23:40.639Z,8.80
2022-12-18T02:26:18.666Z,9.73
2022-12-18T02:28:51.244Z,10.30
2022-12-18T02:31:26.272Z,9.60
2022-12-18T02:34:00.792Z,9.70
2022-12-18T02:36:31.149Z,9.07
2022-12-18T02:39:01.832Z,8.27
2022-12-18T02:41:33.207Z,10.23
2022-12-18T02:44:08.363Z,9.70
2022-12-18T02:46:39.005Z,9.57
2022-12-18T02:49:23.675Z,9.13
2022-12-18T02:51:56.024Z,10.47
2022-12-18T02:54:44.659Z,10.00
2022-12-18T02:57:21.634Z,9.07
2022-12-18T02:59:59.015Z,9.10
2022-12-18T03:02:35.980Z,10.33
2022-12-18T03:05:10.586Z,8.50
2022-12-18T03:07:43.557Z,9.60
2022-12-18T03:10:17.399Z,10.13
2022-12-18T03:12:52.933Z,9.30
2022-12-18T03:15:25.843Z,10.17
2022-12-18T03:18:06.440Z,8.50
2022-12-18T03:20:38.544Z,9.57
2022-12-18T03:23:11.290Z,9.87
2022-12-18T03:25:43.389Z,8.53
2022-12-18T03:28:16.744Z,9.20
2022-12-18T03:30:47.923Z,9.83
2022-12-18T03:33:21.305Z,9.90
2022-12-18T03:35:52.640Z,9.63
2022-12-18T03:38:20.852Z,9.13
2022-12-18T03:41:00.096Z,9.77
2022-12-18T03:43:42.602Z,10.50
2022-12-18T03:46:19.070Z,10.73
2022-12-18T03:48:50.512Z,10.10
2022-12-18T03:51:27.735Z,9.83
2022-12-18T03:53:59.568Z,9.30
2022-12-18T03:56:35.654Z,9.83
2022-12-18T03:59:07.807Z,10.10
2022-12-18T04:01:40.574Z,12.00
2022-12-18T04:04:10.590Z,11.00
2022-12-18T04:06:42.761Z,10.10
2022-12-18T04:09:12.931Z,9.77
2022-12-18T04:11:45.744Z,11.63
2022-12-18T04:14:18.216Z,9.67
2022-12-18T04:16:49.259Z,9.90
2022-12-18T04:19:19.713Z,10.30
2022-12-18T04:21:51.492Z,10.50
2022-12-18T04:24:19.641Z,9.37
2022-12-18T04:26:58.200Z,10.57
2022-12-18T04:29:30.738Z,9.73
2022-12-18T04:31:59.447Z,9.17
2022-12-18T04:34:29.685Z,9.40
2022-12-18T04:36:59.025Z,9.83
2022-12-18T04:39:27.699Z,11.20
2022-12-18T04:42:01.771Z,9.77
2022-12-18T04:44:31.441Z,9.60
2022-12-18T04:46:59.481Z,10.43
2022-12-18T04:49:27.582Z,9.67
2022-12-18T04:51:55.908Z,10.60
2022-12-18T04:54:23.992Z,11.60
2022-12-18T04:56:52.226Z,9.77
2022-12-18T04:59:20.620Z,11.23
2022-12-18T05:01:50.157Z,10.73
2022-12-18T05:04:18.375Z,9.27
2022-12-18T05:06:46.763Z,8.80
2022-12-18T05:09:15.381Z,9.17
2022-12-18T05:11:43.449Z,9.93
2022-12-18T05:14:11.771Z,9.10
2022-12-18T05:16:39.846Z,12.57
2022-12-18T05:19:09.592Z,9.50
2022-12-18T05:21:37.653Z,9.90
2022-12-18T05:24:06.511Z,9.47
2022-12-18T05:26:34.584Z,10.23
2022-12-18T05:29:02.732Z,12.57
2022-12-18T05:31:34.576Z,9.83
2022-12-18T05:34:05.665Z,10.57
2022-12-18T05:36:35.293Z,9.13
2022-12-18T05:39:03.342Z,11.50
2022-12-18T05:41:31.837Z,10.33
2022-12-18T05:44:00.584Z,9.03
2022-12-18T05:46:28.923Z,11.03
2022-12-18T05:48:57.378Z,8.97
2022-12-18T05:51:25.432Z,9.60
2022-12-18T05:53:54.950Z,10.30
2022-12-18T05:56:24.572Z,9.77
2022-12-18T05:58:54.370Z,11.87
2022-12-18T06:01:25.984Z,9.03
2022-12-18T06:03:54.385Z,9.60
2022-12-18T06:06:24.316Z,9.80
2022-12-18T06:08:54.755Z,12.07
2022-12-18T06:11:24.493Z,11.27
2022-12-18T06:13:58.258Z,8.50
2022-12-18T06:16:27.968Z,10.00
2022-12-18T06:18:58.005Z,9.33
2022-12-18T06:21:26.108Z,10.30
2022-12-18T06:23:55.611Z,9.63
2022-12-18T06:26:28.017Z,10.93
2022-12-18T06:28:56.977Z,9.47
2022-12-18T06:31:25.574Z,9.47
2022-12-18T06:33:53.682Z,10.80
2022-12-18T06:36:22.173Z,11.17
2022-12-18T06:38:50.288Z,11.20
2022-12-18T06:41:22.580Z,10.17
2022-12-18T06:43:51.672Z,13.73
2022-12-18T06:46:21.801Z,10.07
2022-12-18T06:48:51.814Z,11.50
2022-12-18T06:51:21.342Z,10.30
2022-12-18T06:53:49.660Z,9.73
2022-12-18T06:56:19.472Z,11.67
2022-12-18T06:58:47.564Z,10.13
2022-12-18T07:01:18.421Z,13.00
2022-12-18T07:03:46.675Z,12.07
2022-12-18T07:06:16.865Z,12.37
2022-12-18T07:08:45.014Z,10.03
2022-12-18T07:11:13.378Z,11.43
2022-12-18T07:13:43.125Z,14.13
2022-12-18T07:16:19.668Z,11.53
2022-12-18T07:18:49.452Z,11.07
2022-12-18T07:21:19.637Z,10.10
2022-12-18T07:23:49.073Z,9.53
2022-12-18T07:26:19.019Z,11.20
2022-12-18T07:28:49.417Z,9.83
2022-12-18T07:31:19.510Z,9.43
2022-12-18T07:33:50.277Z,10.40
2022-12-18T07:36:18.524Z,9.73
2022-12-18T07:38:49.217Z,11.40
2022-12-18T07:41:18.097Z,12.43
2022-12-18T07:43:46.451Z,10.67
2022-12-18T07:46:16.909Z,10.23
2022-12-18T07:48:49.483Z,10.40
2022-12-18T07:51:18.524Z,8.70
2022-12-18T07:53:46.799Z,11.20
2022-12-18T07:56:27.241Z,9.00
2022-12-18T07:58:56.454Z,10.83
2022-12-18T08:01:26.365Z,9.63
2022-12-18T08:03:54.681Z,11.93
2022-12-18T08:06:24.067Z,10.90
2022-12-18T08:08:53.891Z,9.63
2022-12-18T08:11:22.185Z,10.43
2022-12-18T08:13:50.324Z,10.60
2022-12-18T08:16:19.546Z,11.00
2022-12-18T08:18:50.530Z,10.80
2022-12-18T08:21:22.121Z,12.80
2022-12-18T08:23:51.686Z,11.53
2022-12-18T08:26:20.989Z,9.27
2022-12-18T08:28:49.956Z,11.57
2022-12-18T08:31:19.997Z,10.43
2022-12-18T08:33:52.239Z,10.47
2022-12-18T08:36:20.839Z,9.13
2022-12-18T08:38:49.255Z,10.87
2022-12-18T08:41:19.092Z,10.33
2022-12-18T08:44:05.091Z,9.47
2022-12-18T08:46:38.561Z,10.80
2022-12-18T08:49:11.323Z,10.47
2022-12-18T08:51:40.218Z,8.97
2022-12-18T08:54:08.848Z,9.80
2022-12-18T08:56:36.961Z,10.30
2022-12-18T08:59:06.321Z,8.50
2022-12-18T09:01:34.548Z,10.50
2022-12-18T09:04:03.931Z,9.10
2022-12-18T09:06:34.193Z,9.27
2022-12-18T09:09:02.305Z,10.80
2022-12-18T09:11:31.201Z,10.03
2022-12-18T09:13:59.911Z,10.23
2022-12-18T09:16:32.316Z,9.70
2022-12-18T09:19:02.013Z,9.27
2022-12-18T09:21:32.314Z,9.20
2022-12-18T09:24:09.086Z,11.90
2022-12-18T09:26:38.988Z,8.97
2022-12-18T09:29:09.162Z,10.00
2022-12-18T09:31:38.321Z,9.77
2022-12-18T09:34:06.907Z,10.83
2022-12-18T09:36:35.050Z,11.30
2022-12-18T09:39:07.834Z,10.60
2022-12-18T09:41:48.209Z,8.47
2022-12-18T09:44:22.012Z,10.07
2022-12-18T09:46:55.686Z,8.30
2022-12-18T09:49:28.176Z,9.60
2022-12-18T09:51:59.620Z,10.90
2022-12-18T09:54:34.018Z,8.73
2022-12-18T09:57:03.613Z,8.10
2022-12-18T09:59:37.354Z,9.03
2022-12-18T10:02:17.238Z,8.80
2022-12-18T10:04:46.490Z,8.87
2022-12-18T10:07:21.334Z,9.70
2022-12-18T10:09:58.150Z,11.17
2022-12-18T10:12:36.837Z,8.47
2022-12-18T10:15:14.794Z,8.60
2022-12-18T10:17:52.115Z,7.50
2022-12-18T10:20:26.465Z,7.93
2022-12-18T10:23:05.156Z,8.83
2022-12-18T10:25:41.179Z,8.60
2022-12-18T10:28:15.059Z,8.93
2022-12-18T10:30:44.371Z,7.87
2022-12-18T10:33:15.596Z,7.57
2022-12-18T10:35:44.510Z,9.30
2022-12-18T10:38:26.190Z,8.53
2022-12-18T10:40:57.304Z,7.53
2022-12-18T10:43:29.041Z,9.20
2022-12-18T10:46:03.524Z,7.50
2022-12-18T10:48:33.230Z,10.40
2022-12-18T10:51:10.803Z,7.67
2022-12-18T10:53:44.442Z,8.27
2022-12-18T10:56:12.973Z,11.00
2022-12-18T10:58:42.882Z,7.53
2022-12-18T11:01:13.143Z,7.03
2022-12-18T11:03:43.529Z,6.87
2022-12-18T11:06:13.974Z,6.57
2022-12-18T11:08:44.619Z,6.53
2022-12-18T11:11:22.021Z,7.63
2022-12-18T11:14:06.308Z,6.83
2022-12-18T11:16:39.180Z,7.57
2022-12-18T11:19:23.593Z,8.43
2022-12-18T11:21:51.843Z,7.40
2022-12-18T11:24:29.177Z,6.57
2022-12-18T11:26:59.825Z,6.80
2022-12-18T11:29:35.073Z,6.30
2022-12-18T11:32:36.146Z,6.50
2022-12-18T11:35:13.820Z,6.07
2022-12-18T11:37:44.656Z,6.00
2022-12-18T11:40:20.131Z,7.37
2022-12-18T11:42:54.125Z,9.07
2022-12-18T11:45:33.098Z,6.83
2022-12-18T11:48:06.677Z,6.17
2022-12-18T11:50:45.160Z,6.63
2022-12-18T11:53:14.291Z,6.80
2022-12-18T11:55:51.840Z,8.07
2022-12-18T11:58:32.047Z,7.90
2022-12-18T12:01:09.918Z,6.00
2022-12-18T12:04:06.042Z,9.47
2022-12-18T12:06:41.491Z,9.00
2022-12-18T12:09:17.364Z,8.37
2022-12-18T12:12:01.033Z,6.10
2022-12-18T12:14:44.203Z,10.93
2022-12-18T12:17:20.562Z,7.27
2022-12-18T12:19:55.287Z,7.47
2022-12-18T12:22:30.209Z,7.60
2022-12-18T12:25:18.132Z,6.83
2022-12-18T12:27:57.718Z,6.60
2022-12-18T12:30:35.956Z,6.10
2022-12-18T12:33:24.391Z,7.17
2022-12-18T12:36:02.597Z,7.43
2022-12-18T12:38:36.111Z,5.93
2022-12-18T12:41:28.234Z,7.07
2022-12-18T12:43:59.545Z,5.87
2022-12-18T12:46:29.726Z,6.63
2022-12-18T12:49:01.845Z,6.53
2022-12-18T12:51:32.082Z,7.70
2022-12-18T12:54:03.099Z,6.33
2022-12-18T12:56:41.953Z,5.80
2022-12-18T12:59:19.208Z,5.87
2022-12-18T13:01:56.443Z,5.30
2022-12-18T13:04:37.205Z,6.27
2022-12-18T13:07:12.226Z,6.00
2022-12-18T13:10:25.706Z,5.70
2022-12-18T13:12:57.768Z,8.10
2022-12-18T13:15:36.823Z,6.23
2022-12-18T13:18:21.010Z,5.60
2022-12-18T13:23:43.838Z,4.83
2022-12-18T13:26:35.186Z,4.97
2022-12-18T13:29:09.628Z,6.10
2022-12-18T13:32:02.616Z,5.07
2022-12-18T13:34:32.412Z,6.30
2022-12-18T13:37:41.777Z,7.13
2022-12-18T13:40:56.483Z,5.40
2022-12-18T13:43:41.104Z,5.80
2022-12-18T13:46:26.300Z,5.30
2022-12-18T13:48:57.666Z,5.73
2022-12-18T13:51:27.654Z,5.00
2022-12-18T13:53:58.959Z,7.70
2022-12-18T13:56:29.516Z,5.27
2022-12-18T13:59:23.217Z,5.30
2022-12-18T14:01:57.227Z,6.20
2022-12-18T14:04:30.262Z,5.60
2022-12-18T14:07:03.683Z,5.60
2022-12-18T14:09:36.751Z,5.70
2022-12-18T14:12:24.864Z,5.87
2022-12-18T14:14:55.425Z,5.27
2022-12-18T14:17:25.656Z,5.73
2022-12-18T14:19:54.740Z,5.30
2022-12-18T14:22:28.707Z,6.27
2022-12-18T14:25:16.042Z,5.27
2022-12-18T14:27:45.821Z,5.17
2022-12-18T14:30:29.459Z,5.43
2022-12-18T14:33:07.293Z,5.17
2022-12-18T14:35:36.870Z,6.10
2022-12-18T14:38:24.579Z,5.43
2022-12-18T14:41:02.260Z,5.43
2022-12-18T14:43:33.498Z,5.70
2022-12-18T14:46:02.648Z,6.00
2022-12-18T14:48:40.851Z,6.70
2022-12-18T14:51:18.672Z,5.90
2022-12-18T14:53:54.140Z,6.03
2022-12-18T14:56:25.664Z,4.27
2022-12-18T14:58:56.392Z,5.40
2022-12-18T15:01:27.462Z,11.00
2022-12-18T15:03:58.941Z,5.67
2022-12-18T15:06:33.607Z,5.80
2022-12-18T15:09:03.684Z,5.83
2022-12-18T15:11:37.796Z,5.87
2022-12-18T15:14:35.995Z,4.97
2022-12-18T15:17:07.804Z,5.80
2022-12-18T15:19:43.443Z,6.27
2022-12-18T15:22:27.964Z,5.07
2022-12-18T15:24:57.158Z,5.10
2022-12-18T15:27:32.042Z,5.40
2022-12-18T15:30:24.605Z,5.00
2022-12-18T15:32:53.720Z,5.47
2022-12-18T15:35:25.776Z,5.90
2022-12-18T15:37:54.415Z,5.00
2022-12-18T15:40:24.816Z,4.87
2022-12-18T15:43:13.613Z,5.40
2022-12-18T15:45:41.687Z,4.97
2022-12-18T15:48:22.223Z,5.10
2022-12-18T15:50:53.045Z,5.30
2022-12-18T15:53:21.538Z,4.97
2022-12-18T15:56:06.930Z,5.37
2022-12-18T15:58:35.200Z,4.77
2022-12-18T16:01:03.936Z,4.50
2022-12-18T16:03:32.147Z,5.30
2022-12-18T16:06:03.112Z,5.30
2022-12-18T16:08:32.581Z,4.70
2022-12-18T16:11:01.470Z,4.77
2022-12-18T16:13:29.569Z,4.20
2022-12-18T16:15:57.710Z,4.60
2022-12-18T16:18:25.833Z,4.17
2022-12-18T16:20:54.063Z,5.20
2022-12-18T16:23:25.363Z,4.63
2022-12-18T16:25:53.464Z,7.50
2022-12-18T16:28:21.672Z,5.17
2022-12-18T16:30:49.948Z,4.87
2022-12-18T16:33:18.098Z,5.20
2022-12-18T16:35:53.830Z,5.90
2022-12-18T16:38:22.081Z,4.37
2022-12-18T16:41:11.208Z,5.10
2022-12-18T16:43:39.585Z,5.57
2022-12-18T16:46:08.124Z,4.80
2022-12-18T16:48:36.441Z,5.67
2022-12-18T16:51:06.084Z,5.70
2022-12-18T16:53:35.148Z,4.20
2022-12-18T16:56:06.173Z,4.23
2022-12-18T16:58:35.269Z,4.30
2022-12-18T17:01:08.681Z,5.20
2022-12-18T17:03:36.900Z,4.03
2022-12-18T17:06:05.273Z,3.87
2022-12-18T17:08:33.626Z,5.47
2022-12-18T17:11:07.725Z,6.80
2022-12-18T17:13:36.091Z,5.03
2022-12-18T17:16:06.366Z,12.53
2022-12-18T17:18:35.622Z,5.03
2022-12-18T17:21:06.008Z,4.77
2022-12-18T17:23:34.277Z,4.87
2022-12-18T17:26:02.736Z,4.87
2022-12-18T17:28:32.376Z,4.60
2022-12-18T17:31:00.574Z,5.70
2022-12-18T17:33:28.785Z,8.53
2022-12-18T17:35:59.989Z,4.40
2022-12-18T17:38:28.089Z,5.40
2022-12-18T17:40:56.298Z,5.00
2022-12-18T17:43:24.500Z,6.13
2022-12-18T17:45:55.701Z,6.27
2022-12-18T17:48:24.925Z,7.00
2022-12-18T17:50:53.017Z,5.27
2022-12-18T17:53:21.136Z,5.00
2022-12-18T17:55:56.021Z,5.40
2022-12-18T17:58:24.179Z,4.63
2022-12-18T18:00:53.666Z,5.20
2022-12-18T18:03:22.188Z,5.90
2022-12-18T18:05:50.799Z,5.80
2022-12-18T18:08:18.931Z,5.50
2022-12-18T18:10:48.923Z,6.10
2022-12-18T18:13:46.310Z,5.30
2022-12-18T18:16:16.430Z,5.67
2022-12-18T18:18:44.648Z,6.43
2022-12-18T18:21:12.769Z,6.30
2022-12-18T18:23:43.502Z,5.63
2022-12-18T18:26:14.080Z,5.90
2022-12-18T18:28:42.614Z,6.50
2022-12-18T18:31:12.289Z,8.70
2022-12-18T18:33:42.618Z,6.07
2022-12-18T18:36:13.090Z,9.20
2022-12-18T18:38:46.674Z,7.20
2022-12-18T18:41:17.117Z,7.60
2022-12-18T18:43:45.390Z,7.43
2022-12-18T18:46:15.684Z,6.87
2022-12-18T18:48:45.182Z,6.97
2022-12-18T18:51:21.097Z,8.73
2022-12-18T18:53:51.705Z,5.33
2022-12-18T18:59:13.444Z,7.10
2022-12-18T19:01:42.013Z,5.90
2022-12-18T19:04:11.904Z,6.67
2022-12-18T19:06:40.719Z,7.93
2022-12-18T19:09:09.651Z,6.10
2022-12-18T19:11:55.521Z,6.53
2022-12-18T19:14:26.691Z,6.60
2022-12-18T19:16:54.840Z,6.30
2022-12-18T19:19:25.330Z,6.00
2022-12-18T19:21:53.771Z,5.80
2022-12-18T19:24:22.631Z,6.57
2022-12-18T19:26:52.178Z,7.50
2022-12-18T19:29:22.971Z,7.37
2022-12-18T19:31:51.224Z,6.10
2022-12-18T19:34:19.404Z,7.53
2022-12-18T19:36:48.903Z,6.33
2022-12-18T19:39:19.428Z,6.27
2022-12-18T19:41:48.159Z,7.93
2022-12-18T19:44:17.782Z,6.23
2022-12-18T19:46:47.093Z,6.00
2022-12-18T19:49:18.100Z,6.37
2022-12-18T19:51:50.284Z,6.70
2022-12-18T19:54:18.819Z,5.90
2022-12-18T19:56:47.127Z,5.63
2022-12-18T19:59:15.847Z,6.20
2022-12-18T20:01:44.027Z,7.70
2022-12-18T20:04:12.246Z,6.00
2022-12-18T20:06:50.492Z,6.40
2022-12-18T20:09:19.285Z,6.30
2022-12-18T20:11:49.202Z,5.97
2022-12-18T20:14:22.633Z,10.40
2022-12-18T20:16:52.281Z,6.07
2022-12-18T20:19:20.752Z,7.40
2022-12-18T20:21:50.880Z,6.33
2022-12-18T20:24:19.021Z,10.50
2022-12-18T20:26:47.218Z,6.90
2022-12-18T20:29:15.338Z,5.90
2022-12-18T20:31:43.565Z,8.30
2022-12-18T20:34:12.067Z,7.10
2022-12-18T20:36:41.158Z,7.13
2022-12-18T20:39:12.243Z,5.93
2022-12-18T20:41:41.720Z,8.87
2022-12-18T20:44:22.820Z,5.60
2022-12-18T20:46:53.958Z,6.20
2022-12-18T20:49:22.481Z,7.23
2022-12-18T20:51:56.131Z,5.60
2022-12-18T20:54:27.409Z,7.07
2022-12-18T20:56:56.041Z,6.13
2022-12-18T20:59:25.551Z,5.67
2022-12-18T21:01:56.800Z,5.67
2022-12-18T21:04:25.730Z,6.40
2022-12-18T21:06:57.855Z,7.83
2022-12-18T21:09:37.427Z,5.17
2022-12-18T21:12:40.556Z,6.53
2022-12-18T21:15:16.809Z,6.90
2022-12-18T21:17:45.469Z,6.30
2022-12-18T21:20:17.397Z,10.97
2022-12-18T21:22:46.764Z,6.47
2022-12-18T21:25:16.383Z,6.30
2022-12-18T21:27:44.643Z,7.90
2022-12-18T21:30:13.586Z,6.37
2022-12-18T21:32:41.941Z,6.40
2022-12-18T21:35:10.713Z,5.77
2022-12-18T21:37:38.829Z,5.73
2022-12-18T21:40:08.183Z,7.07
2022-12-18T21:46:39.509Z,6.23
2022-12-18T21:49:08.920Z,5.73
2022-12-18T21:51:37.654Z,5.97
2022-12-18T21:54:05.970Z,6.60
2022-12-18T21:56:47.944Z,5.40
2022-12-18T21:59:18.133Z,6.70
2022-12-18T22:01:48.330Z,5.97
2022-12-18T22:04:17.114Z,5.40
2022-12-18T22:06:46.110Z,5.83
2022-12-18T22:09:16.041Z,6.13
2022-12-18T22:11:44.902Z,6.50
2022-12-18T22:14:13.719Z,5.67
2022-12-18T22:16:42.733Z,5.67
2022-12-18T22:19:14.185Z,5.80
2022-12-18T22:21:44.903Z,6.17
2022-12-18T22:24:16.801Z,5.47
2022-12-18T22:26:45.510Z,5.80
2022-12-18T22:29:34.435Z,8.27
2022-12-18T22:32:03.432Z,5.63
2022-12-18T22:34:36.574Z,7.70
2022-12-18T22:37:05.145Z,7.20
2022-12-18T22:39:33.594Z,5.90
2022-12-18T22:42:01.774Z,5.10
2022-12-18T22:44:29.873Z,6.70
2022-12-18T22:47:06.808Z,6.83
2022-12-18T22:49:37.279Z,6.10
2022-12-18T22:52:07.154Z,5.90
2022-12-18T22:54:35.497Z,6.57
2022-12-18T22:57:03.590Z,6.13
2022-12-18T22:59:31.700Z,5.40
2022-12-18T23:01:59.896Z,6.60
2022-12-18T23:04:30.011Z,6.67
2022-12-18T23:07:06.248Z,7.00
2022-12-18T23:09:34.718Z,6.60
2022-12-18T23:12:02.947Z,6.07
2022-12-18T23:14:31.828Z,6.57
2022-12-18T23:16:59.923Z,6.57
2022-12-18T23:19:28.021Z,6.00
2022-12-18T23:21:57.744Z,6.77
2022-12-18T23:24:27.925Z,7.00
2022-12-18T23:26:58.944Z,6.37
2022-12-18T23:29:27.068Z,6.80
2022-12-18T23:31:55.157Z,7.00
2022-12-18T23:34:23.269Z,6.30
2022-12-18T23:36:56.007Z,5.97
2022-12-18T23:39:29.689Z,6.97
2022-12-18T23:42:00.341Z,6.00
2022-12-18T23:44:29.268Z,5.77
2022-12-18T23:46:57.395Z,6.77
2022-12-18T23:49:25.819Z,7.00
2022-12-18T23:51:55.435Z,8.27
2022-12-18T23:54:33.122Z,7.00
2022-12-18T23:57:03.510Z,7.47
2022-12-18T23:59:31.618Z,6.07
